sensor_id;sensor_type;location;lat;lon;timestamp;P1;durP1;ratioP1;P2;durP2;ratioP2
81950;SDS011;71452;52.562;5.642;2024-01-06T00:00:13;10.07;;;3.90;;
81950;SDS011;71452;52.562;5.642;2024-01-06T00:02:43;9.43;;;4.50;;
81950;SDS011;71452;52.562;5.642;2024-01-06T00:05:12;9.85;;;4.65;;
81950;SDS011;71452;52.562;5.642;2024-01-06T00:07:41;9.18;;;4.15;;
81950;SDS011;71452;52.562;5.642;2024-01-06T00:10:10;10.95;;;5.43;;
81950;SDS011;71452;52.562;5.642;2024-01-06T00:12:42;11.20;;;5.55;;
81950;SDS011;71452;52.562;5.642;2024-01-06T00:15:11;8.80;;;3.95;;
81950;SDS011;71452;52.562;5.642;2024-01-06T00:17:41;11.73;;;4.55;;
81950;SDS011;71452;52.562;5.642;2024-01-06T00:20:10;13.85;;;5.15;;
81950;SDS011;71452;52.562;5.642;2024-01-06T00:22:39;11.20;;;3.90;;
81950;SDS011;71452;52.562;5.642;2024-01-06T00:25:10;9.57;;;4.70;;
81950;SDS011;71452;52.562;5.642;2024-01-06T00:27:41;14.40;;;6.10;;
81950;SDS011;71452;52.562;5.642;2024-01-06T00:30:11;11.63;;;5.20;;
81950;SDS011;71452;52.562;5.642;2024-01-06T00:32:41;13.13;;;5.25;;
81950;SDS011;71452;52.562;5.642;2024-01-06T00:35:10;10.60;;;4.85;;
81950;SDS011;71452;52.562;5.642;2024-01-06T00:37:39;6.90;;;3.38;;
81950;SDS011;71452;52.562;5.642;2024-01-06T00:40:08;10.63;;;5.50;;
81950;SDS011;71452;52.562;5.642;2024-01-06T00:42:38;12.15;;;6.60;;
81950;SDS011;71452;52.562;5.642;2024-01-06T00:45:10;11.05;;;4.30;;
81950;SDS011;71452;52.562;5.642;2024-01-06T00:47:39;10.50;;;4.70;;
81950;SDS011;71452;52.562;5.642;2024-01-06T00:50:08;14.90;;;6.38;;
81950;SDS011;71452;52.562;5.642;2024-01-06T00:52:38;12.18;;;6.13;;
81950;SDS011;71452;52.562;5.642;2024-01-06T00:55:08;15.73;;;6.47;;
81950;SDS011;71452;52.562;5.642;2024-01-06T00:57:37;13.40;;;6.13;;
81950;SDS011;71452;52.562;5.642;2024-01-06T01:00:09;12.60;;;5.47;;
81950;SDS011;71452;52.562;5.642;2024-01-06T01:02:39;11.57;;;4.88;;
81950;SDS011;71452;52.562;5.642;2024-01-06T01:05:09;13.52;;;5.53;;
81950;SDS011;71452;52.562;5.642;2024-01-06T01:07:38;16.75;;;6.93;;
81950;SDS011;71452;52.562;5.642;2024-01-06T01:10:07;13.32;;;6.30;;
81950;SDS011;71452;52.562;5.642;2024-01-06T01:12:37;14.73;;;6.15;;
81950;SDS011;71452;52.562;5.642;2024-01-06T01:15:09;15.57;;;5.90;;
81950;SDS011;71452;52.562;5.642;2024-01-06T01:17:38;15.35;;;6.72;;
81950;SDS011;71452;52.562;5.642;2024-01-06T01:20:08;14.10;;;6.78;;
81950;SDS011;71452;52.562;5.642;2024-01-06T01:22:38;16.88;;;6.38;;
81950;SDS011;71452;52.562;5.642;2024-01-06T01:25:07;14.52;;;5.30;;
81950;SDS011;71452;52.562;5.642;2024-01-06T01:27:38;17.27;;;6.05;;
81950;SDS011;71452;52.562;5.642;2024-01-06T01:30:10;13.68;;;5.35;;
81950;SDS011;71452;52.562;5.642;2024-01-06T01:32:40;12.60;;;6.07;;
81950;SDS011;71452;52.562;5.642;2024-01-06T01:35:09;14.45;;;6.22;;
81950;SDS011;71452;52.562;5.642;2024-01-06T01:37:39;10.93;;;5.75;;
81950;SDS011;71452;52.562;5.642;2024-01-06T01:40:08;12.77;;;5.40;;
81950;SDS011;71452;52.562;5.642;2024-01-06T01:42:38;13.40;;;6.15;;
81950;SDS011;71452;52.562;5.642;2024-01-06T01:45:11;12.25;;;5.68;;
81950;SDS011;71452;52.562;5.642;2024-01-06T01:47:41;12.77;;;5.45;;
81950;SDS011;71452;52.562;5.642;2024-01-06T01:50:11;12.38;;;5.53;;
81950;SDS011;71452;52.562;5.642;2024-01-06T01:52:41;17.45;;;7.28;;
81950;SDS011;71452;52.562;5.642;2024-01-06T01:55:11;9.02;;;4.85;;
81950;SDS011;71452;52.562;5.642;2024-01-06T01:57:40;10.98;;;5.50;;
81950;SDS011;71452;52.562;5.642;2024-01-06T02:00:13;12.38;;;6.47;;
81950;SDS011;71452;52.562;5.642;2024-01-06T02:02:42;10.68;;;4.68;;
81950;SDS011;71452;52.562;5.642;2024-01-06T02:05:12;9.95;;;4.75;;
81950;SDS011;71452;52.562;5.642;2024-01-06T02:07:41;10.57;;;4.72;;
81950;SDS011;71452;52.562;5.642;2024-01-06T02:10:10;11.10;;;5.13;;
81950;SDS011;71452;52.562;5.642;2024-01-06T02:12:39;10.68;;;5.07;;
81950;SDS011;71452;52.562;5.642;2024-01-06T02:15:08;9.68;;;4.72;;
81950;SDS011;71452;52.562;5.642;2024-01-06T02:17:40;9.13;;;4.03;;
81950;SDS011;71452;52.562;5.642;2024-01-06T02:20:10;10.43;;;4.93;;
81950;SDS011;71452;52.562;5.642;2024-01-06T02:22:44;5.93;;;2.72;;
81950;SDS011;71452;52.562;5.642;2024-01-06T02:25:13;8.73;;;4.68;;
81950;SDS011;71452;52.562;5.642;2024-01-06T02:27:42;10.68;;;4.63;;
81950;SDS011;71452;52.562;5.642;2024-01-06T02:30:11;11.27;;;4.82;;
81950;SDS011;71452;52.562;5.642;2024-01-06T02:32:40;8.32;;;3.97;;
81950;SDS011;71452;52.562;5.642;2024-01-06T02:35:10;7.38;;;3.80;;
81950;SDS011;71452;52.562;5.642;2024-01-06T02:37:39;9.70;;;4.20;;
81950;SDS011;71452;52.562;5.642;2024-01-06T02:40:11;8.40;;;3.92;;
81950;SDS011;71452;52.562;5.642;2024-01-06T02:45:10;5.63;;;3.00;;
81950;SDS011;71452;52.562;5.642;2024-01-06T02:47:40;7.88;;;3.85;;
81950;SDS011;71452;52.562;5.642;2024-01-06T02:50:09;5.55;;;3.17;;
81950;SDS011;71452;52.562;5.642;2024-01-06T02:52:38;7.78;;;3.78;;
81950;SDS011;71452;52.562;5.642;2024-01-06T02:55:07;7.15;;;4.00;;
81950;SDS011;71452;52.562;5.642;2024-01-06T02:57:39;5.90;;;2.60;;
81950;SDS011;71452;52.562;5.642;2024-01-06T03:00:09;6.45;;;3.58;;
81950;SDS011;71452;52.562;5.642;2024-01-06T03:02:39;7.22;;;3.80;;
81950;SDS011;71452;52.562;5.642;2024-01-06T03:05:08;7.30;;;3.30;;
81950;SDS011;71452;52.562;5.642;2024-01-06T03:07:38;8.77;;;3.95;;
81950;SDS011;71452;52.562;5.642;2024-01-06T03:10:07;7.07;;;3.78;;
81950;SDS011;71452;52.562;5.642;2024-01-06T03:12:39;9.88;;;4.32;;
81950;SDS011;71452;52.562;5.642;2024-01-06T03:15:09;6.18;;;3.17;;
81950;SDS011;71452;52.562;5.642;2024-01-06T03:17:38;7.03;;;3.65;;
81950;SDS011;71452;52.562;5.642;2024-01-06T03:20:08;8.52;;;4.10;;
81950;SDS011;71452;52.562;5.642;2024-01-06T03:22:37;7.10;;;3.22;;
81950;SDS011;71452;52.562;5.642;2024-01-06T03:25:07;6.47;;;3.38;;
81950;SDS011;71452;52.562;5.642;2024-01-06T03:27:36;7.65;;;4.07;;
81950;SDS011;71452;52.562;5.642;2024-01-06T03:30:08;5.20;;;2.53;;
81950;SDS011;71452;52.562;5.642;2024-01-06T03:32:39;8.27;;;3.65;;
81950;SDS011;71452;52.562;5.642;2024-01-06T03:35:08;4.47;;;2.10;;
81950;SDS011;71452;52.562;5.642;2024-01-06T03:37:37;11.23;;;4.45;;
81950;SDS011;71452;52.562;5.642;2024-01-06T03:40:07;6.82;;;3.63;;
81950;SDS011;71452;52.562;5.642;2024-01-06T03:42:37;6.20;;;2.25;;
81950;SDS011;71452;52.562;5.642;2024-01-06T03:45:09;8.48;;;3.10;;
81950;SDS011;71452;52.562;5.642;2024-01-06T03:47:38;8.88;;;3.00;;
81950;SDS011;71452;52.562;5.642;2024-01-06T03:50:07;6.03;;;2.45;;
81950;SDS011;71452;52.562;5.642;2024-01-06T03:52:37;5.10;;;2.67;;
81950;SDS011;71452;52.562;5.642;2024-01-06T03:55:06;6.82;;;3.20;;
81950;SDS011;71452;52.562;5.642;2024-01-06T03:57:36;6.45;;;3.67;;
81950;SDS011;71452;52.562;5.642;2024-01-06T04:00:05;6.53;;;3.42;;
81950;SDS011;71452;52.562;5.642;2024-01-06T04:02:38;7.68;;;4.00;;
81950;SDS011;71452;52.562;5.642;2024-01-06T04:05:07;6.32;;;2.45;;
81950;SDS011;71452;52.562;5.642;2024-01-06T04:07:36;5.18;;;2.40;;
81950;SDS011;71452;52.562;5.642;2024-01-06T04:10:05;8.90;;;3.88;;
81950;SDS011;71452;52.562;5.642;2024-01-06T04:12:35;5.40;;;2.65;;
81950;SDS011;71452;52.562;5.642;2024-01-06T04:15:04;7.95;;;3.20;;
81950;SDS011;71452;52.562;5.642;2024-01-06T04:17:36;8.52;;;4.60;;
81950;SDS011;71452;52.562;5.642;2024-01-06T04:20:06;9.45;;;4.13;;
81950;SDS011;71452;52.562;5.642;2024-01-06T04:22:38;7.22;;;3.53;;
81950;SDS011;71452;52.562;5.642;2024-01-06T04:25:07;7.45;;;3.88;;
81950;SDS011;71452;52.562;5.642;2024-01-06T04:27:36;8.50;;;2.70;;
81950;SDS011;71452;52.562;5.642;2024-01-06T04:30:06;8.85;;;4.13;;
81950;SDS011;71452;52.562;5.642;2024-01-06T04:32:38;7.95;;;4.20;;
81950;SDS011;71452;52.562;5.642;2024-01-06T04:35:07;7.60;;;3.47;;
81950;SDS011;71452;52.562;5.642;2024-01-06T04:37:37;6.22;;;2.80;;
81950;SDS011;71452;52.562;5.642;2024-01-06T04:40:06;4.78;;;2.72;;
81950;SDS011;71452;52.562;5.642;2024-01-06T04:42:36;10.40;;;3.58;;
81950;SDS011;71452;52.562;5.642;2024-01-06T04:45:06;6.00;;;3.20;;
81950;SDS011;71452;52.562;5.642;2024-01-06T04:47:38;5.22;;;2.78;;
81950;SDS011;71452;52.562;5.642;2024-01-06T04:50:08;5.90;;;2.95;;
81950;SDS011;71452;52.562;5.642;2024-01-06T04:52:37;5.65;;;3.22;;
81950;SDS011;71452;52.562;5.642;2024-01-06T04:55:07;6.30;;;2.90;;
81950;SDS011;71452;52.562;5.642;2024-01-06T04:57:36;5.22;;;2.80;;
81950;SDS011;71452;52.562;5.642;2024-01-06T05:00:06;5.03;;;2.80;;
81950;SDS011;71452;52.562;5.642;2024-01-06T05:02:39;4.00;;;2.35;;
81950;SDS011;71452;52.562;5.642;2024-01-06T05:05:08;6.95;;;2.47;;
81950;SDS011;71452;52.562;5.642;2024-01-06T05:07:37;6.05;;;3.17;;
81950;SDS011;71452;52.562;5.642;2024-01-06T05:10:07;5.30;;;2.20;;
81950;SDS011;71452;52.562;5.642;2024-01-06T05:12:36;7.07;;;2.08;;
81950;SDS011;71452;52.562;5.642;2024-01-06T05:15:06;4.28;;;2.58;;
81950;SDS011;71452;52.562;5.642;2024-01-06T05:17:38;10.88;;;3.60;;
81950;SDS011;71452;52.562;5.642;2024-01-06T05:20:08;5.45;;;3.30;;
81950;SDS011;71452;52.562;5.642;2024-01-06T05:22:37;8.93;;;3.50;;
81950;SDS011;71452;52.562;5.642;2024-01-06T05:25:07;3.75;;;2.33;;
81950;SDS011;71452;52.562;5.642;2024-01-06T05:27:37;5.22;;;2.72;;
81950;SDS011;71452;52.562;5.642;2024-01-06T05:30:07;4.05;;;2.03;;
81950;SDS011;71452;52.562;5.642;2024-01-06T05:32:39;7.10;;;3.33;;
81950;SDS011;71452;52.562;5.642;2024-01-06T05:35:08;6.65;;;3.72;;
81950;SDS011;71452;52.562;5.642;2024-01-06T05:37:37;5.68;;;2.30;;
81950;SDS011;71452;52.562;5.642;2024-01-06T05:40:07;5.43;;;3.58;;
81950;SDS011;71452;52.562;5.642;2024-01-06T05:42:37;7.35;;;3.55;;
81950;SDS011;71452;52.562;5.642;2024-01-06T05:45:10;5.63;;;2.85;;
81950;SDS011;71452;52.562;5.642;2024-01-06T05:47:42;9.77;;;2.58;;
81950;SDS011;71452;52.562;5.642;2024-01-06T05:50:11;6.20;;;2.78;;
81950;SDS011;71452;52.562;5.642;2024-01-06T05:52:44;6.25;;;2.92;;
81950;SDS011;71452;52.562;5.642;2024-01-06T05:55:14;6.65;;;3.58;;
81950;SDS011;71452;52.562;5.642;2024-01-06T05:57:44;4.07;;;2.72;;
81950;SDS011;71452;52.562;5.642;2024-01-06T06:00:13;4.43;;;2.40;;
81950;SDS011;71452;52.562;5.642;2024-01-06T06:02:46;5.72;;;2.97;;
81950;SDS011;71452;52.562;5.642;2024-01-06T06:05:15;5.55;;;2.38;;
81950;SDS011;71452;52.562;5.642;2024-01-06T06:07:44;6.93;;;3.60;;
81950;SDS011;71452;52.562;5.642;2024-01-06T06:10:13;6.55;;;3.30;;
81950;SDS011;71452;52.562;5.642;2024-01-06T06:12:44;8.70;;;4.03;;
81950;SDS011;71452;52.562;5.642;2024-01-06T06:15:13;4.88;;;3.00;;
81950;SDS011;71452;52.562;5.642;2024-01-06T06:17:42;7.65;;;3.60;;
81950;SDS011;71452;52.562;5.642;2024-01-06T06:20:14;8.65;;;3.15;;
81950;SDS011;71452;52.562;5.642;2024-01-06T06:22:43;6.35;;;2.88;;
81950;SDS011;71452;52.562;5.642;2024-01-06T06:25:12;6.05;;;3.55;;
81950;SDS011;71452;52.562;5.642;2024-01-06T06:27:41;7.40;;;3.65;;
81950;SDS011;71452;52.562;5.642;2024-01-06T06:30:11;7.35;;;3.50;;
81950;SDS011;71452;52.562;5.642;2024-01-06T06:32:41;6.15;;;2.70;;
81950;SDS011;71452;52.562;5.642;2024-01-06T06:35:13;5.13;;;2.88;;
81950;SDS011;71452;52.562;5.642;2024-01-06T06:37:42;5.30;;;2.72;;
81950;SDS011;71452;52.562;5.642;2024-01-06T06:40:11;5.50;;;3.42;;
81950;SDS011;71452;52.562;5.642;2024-01-06T06:42:40;5.38;;;2.45;;
81950;SDS011;71452;52.562;5.642;2024-01-06T06:45:10;6.75;;;3.53;;
81950;SDS011;71452;52.562;5.642;2024-01-06T06:47:39;7.00;;;3.35;;
81950;SDS011;71452;52.562;5.642;2024-01-06T06:50:08;4.28;;;2.65;;
81950;SDS011;71452;52.562;5.642;2024-01-06T06:52:40;4.25;;;2.28;;
81950;SDS011;71452;52.562;5.642;2024-01-06T06:55:10;8.73;;;2.40;;
81950;SDS011;71452;52.562;5.642;2024-01-06T06:57:39;5.60;;;2.95;;
81950;SDS011;71452;52.562;5.642;2024-01-06T07:00:08;7.97;;;3.15;;
81950;SDS011;71452;52.562;5.642;2024-01-06T07:02:38;5.70;;;3.30;;
81950;SDS011;71452;52.562;5.642;2024-01-06T07:05:08;6.95;;;3.33;;
81950;SDS011;71452;52.562;5.642;2024-01-06T07:07:39;6.60;;;3.20;;
81950;SDS011;71452;52.562;5.642;2024-01-06T07:10:10;5.10;;;2.10;;
81950;SDS011;71452;52.562;5.642;2024-01-06T07:12:39;5.30;;;2.50;;
81950;SDS011;71452;52.562;5.642;2024-01-06T07:15:08;3.42;;;2.63;;
81950;SDS011;71452;52.562;5.642;2024-01-06T07:17:38;5.90;;;3.33;;
81950;SDS011;71452;52.562;5.642;2024-01-06T07:20:07;7.70;;;3.53;;
81950;SDS011;71452;52.562;5.642;2024-01-06T07:22:40;4.65;;;2.17;;
81950;SDS011;71452;52.562;5.642;2024-01-06T07:25:09;5.18;;;2.80;;
81950;SDS011;71452;52.562;5.642;2024-01-06T07:27:38;8.05;;;4.07;;
81950;SDS011;71452;52.562;5.642;2024-01-06T07:30:08;5.57;;;3.25;;
81950;SDS011;71452;52.562;5.642;2024-01-06T07:32:38;4.43;;;2.90;;
81950;SDS011;71452;52.562;5.642;2024-01-06T07:35:07;6.95;;;2.88;;
81950;SDS011;71452;52.562;5.642;2024-01-06T07:37:39;6.13;;;3.03;;
81950;SDS011;71452;52.562;5.642;2024-01-06T07:40:09;8.13;;;4.38;;
81950;SDS011;71452;52.562;5.642;2024-01-06T07:42:42;8.18;;;3.38;;
81950;SDS011;71452;52.562;5.642;2024-01-06T07:45:11;4.32;;;2.80;;
81950;SDS011;71452;52.562;5.642;2024-01-06T07:47:40;7.30;;;3.42;;
81950;SDS011;71452;52.562;5.642;2024-01-06T07:50:10;7.38;;;3.70;;
81950;SDS011;71452;52.562;5.642;2024-01-06T07:52:41;6.32;;;3.53;;
81950;SDS011;71452;52.562;5.642;2024-01-06T07:55:11;5.40;;;2.58;;
81950;SDS011;71452;52.562;5.642;2024-01-06T07:57:40;7.43;;;4.30;;
81950;SDS011;71452;52.562;5.642;2024-01-06T08:00:10;5.65;;;2.92;;
81950;SDS011;71452;52.562;5.642;2024-01-06T08:02:40;7.03;;;3.30;;
81950;SDS011;71452;52.562;5.642;2024-01-06T08:05:10;7.18;;;3.05;;
81950;SDS011;71452;52.562;5.642;2024-01-06T08:07:42;6.85;;;2.13;;
81950;SDS011;71452;52.562;5.642;2024-01-06T08:10:11;8.02;;;3.08;;
81950;SDS011;71452;52.562;5.642;2024-01-06T08:12:40;7.43;;;4.13;;
81950;SDS011;71452;52.562;5.642;2024-01-06T08:15:09;4.78;;;3.10;;
81950;SDS011;71452;52.562;5.642;2024-01-06T08:17:38;10.07;;;5.13;;
81950;SDS011;71452;52.562;5.642;2024-01-06T08:20:09;7.05;;;3.45;;
81950;SDS011;71452;52.562;5.642;2024-01-06T08:22:38;6.63;;;3.78;;
81950;SDS011;71452;52.562;5.642;2024-01-06T08:25:10;7.95;;;3.80;;
81950;SDS011;71452;52.562;5.642;2024-01-06T08:27:40;7.55;;;4.00;;
81950;SDS011;71452;52.562;5.642;2024-01-06T08:30:10;7.60;;;3.60;;
81950;SDS011;71452;52.562;5.642;2024-01-06T08:32:40;7.82;;;3.65;;
81950;SDS011;71452;52.562;5.642;2024-01-06T08:35:09;6.30;;;3.03;;
81950;SDS011;71452;52.562;5.642;2024-01-06T08:37:41;10.50;;;4.22;;
81950;SDS011;71452;52.562;5.642;2024-01-06T08:40:11;5.72;;;3.17;;
81950;SDS011;71452;52.562;5.642;2024-01-06T08:42:41;6.45;;;3.13;;
81950;SDS011;71452;52.562;5.642;2024-01-06T08:45:10;9.10;;;3.35;;
81950;SDS011;71452;52.562;5.642;2024-01-06T08:47:39;4.13;;;2.65;;
81950;SDS011;71452;52.562;5.642;2024-01-06T08:50:08;6.18;;;3.42;;
81950;SDS011;71452;52.562;5.642;2024-01-06T08:52:37;5.38;;;2.80;;
81950;SDS011;71452;52.562;5.642;2024-01-06T08:55:09;10.65;;;3.17;;
81950;SDS011;71452;52.562;5.642;2024-01-06T08:57:39;7.75;;;3.70;;
81950;SDS011;71452;52.562;5.642;2024-01-06T09:00:08;6.45;;;3.75;;
81950;SDS011;71452;52.562;5.642;2024-01-06T09:02:37;9.32;;;4.78;;
81950;SDS011;71452;52.562;5.642;2024-01-06T09:05:07;4.78;;;2.75;;
81950;SDS011;71452;52.562;5.642;2024-01-06T09:07:36;7.47;;;3.55;;
81950;SDS011;71452;52.562;5.642;2024-01-06T09:10:05;5.57;;;2.35;;
81950;SDS011;71452;52.562;5.642;2024-01-06T09:12:37;6.28;;;3.50;;
81950;SDS011;71452;52.562;5.642;2024-01-06T09:15:07;6.97;;;3.63;;
81950;SDS011;71452;52.562;5.642;2024-01-06T09:17:37;6.15;;;3.33;;
81950;SDS011;71452;52.562;5.642;2024-01-06T09:20:06;8.43;;;3.80;;
81950;SDS011;71452;52.562;5.642;2024-01-06T09:22:38;8.00;;;3.75;;
81950;SDS011;71452;52.562;5.642;2024-01-06T09:25:09;9.68;;;4.88;;
81950;SDS011;71452;52.562;5.642;2024-01-06T09:27:39;9.18;;;3.70;;
81950;SDS011;71452;52.562;5.642;2024-01-06T09:30:08;9.77;;;5.18;;
81950;SDS011;71452;52.562;5.642;2024-01-06T09:32:38;7.22;;;3.50;;
81950;SDS011;71452;52.562;5.642;2024-01-06T09:35:07;7.53;;;3.95;;
81950;SDS011;71452;52.562;5.642;2024-01-06T09:37:36;9.20;;;3.72;;
81950;SDS011;71452;52.562;5.642;2024-01-06T09:40:07;8.25;;;3.65;;
81950;SDS011;71452;52.562;5.642;2024-01-06T09:42:44;7.22;;;4.10;;
81950;SDS011;71452;52.562;5.642;2024-01-06T09:45:14;7.53;;;3.83;;
81950;SDS011;71452;52.562;5.642;2024-01-06T09:47:43;7.32;;;3.95;;
81950;SDS011;71452;52.562;5.642;2024-01-06T09:50:17;10.98;;;4.97;;
81950;SDS011;71452;52.562;5.642;2024-01-06T09:52:48;6.75;;;4.20;;
81950;SDS011;71452;52.562;5.642;2024-01-06T09:55:24;9.85;;;3.63;;
81950;SDS011;71452;52.562;5.642;2024-01-06T09:57:54;8.63;;;5.30;;
81950;SDS011;71452;52.562;5.642;2024-01-06T10:00:23;7.43;;;4.22;;
81950;SDS011;71452;52.562;5.642;2024-01-06T10:02:53;8.25;;;4.43;;
81950;SDS011;71452;52.562;5.642;2024-01-06T10:05:22;10.77;;;6.18;;
81950;SDS011;71452;52.562;5.642;2024-01-06T10:07:51;8.13;;;5.35;;
81950;SDS011;71452;52.562;5.642;2024-01-06T10:10:24;7.38;;;3.67;;
81950;SDS011;71452;52.562;5.642;2024-01-06T10:12:53;8.82;;;5.03;;
81950;SDS011;71452;52.562;5.642;2024-01-06T10:15:23;9.45;;;4.72;;
81950;SDS011;71452;52.562;5.642;2024-01-06T10:17:53;8.90;;;4.25;;
81950;SDS011;71452;52.562;5.642;2024-01-06T10:20:22;9.65;;;4.32;;
81950;SDS011;71452;52.562;5.642;2024-01-06T10:22:52;5.43;;;3.35;;
81950;SDS011;71452;52.562;5.642;2024-01-06T10:25:25;4.30;;;2.70;;
81950;SDS011;71452;52.562;5.642;2024-01-06T10:27:57;8.48;;;3.97;;
81950;SDS011;71452;52.562;5.642;2024-01-06T10:30:29;7.35;;;4.10;;
81950;SDS011;71452;52.562;5.642;2024-01-06T10:32:59;7.82;;;5.30;;
81950;SDS011;71452;52.562;5.642;2024-01-06T10:35:28;7.25;;;4.15;;
81950;SDS011;71452;52.562;5.642;2024-01-06T10:37:57;8.68;;;6.40;;
81950;SDS011;71452;52.562;5.642;2024-01-06T10:40:30;12.60;;;7.57;;
81950;SDS011;71452;52.562;5.642;2024-01-06T10:42:59;8.63;;;3.90;;
81950;SDS011;71452;52.562;5.642;2024-01-06T10:45:29;10.23;;;5.78;;
81950;SDS011;71452;52.562;5.642;2024-01-06T10:47:58;8.68;;;6.05;;
81950;SDS011;71452;52.562;5.642;2024-01-06T10:50:29;7.78;;;4.88;;
81950;SDS011;71452;52.562;5.642;2024-01-06T10:53:00;12.80;;;8.07;;
81950;SDS011;71452;52.562;5.642;2024-01-06T10:55:32;7.25;;;3.65;;
81950;SDS011;71452;52.562;5.642;2024-01-06T10:58:03;9.50;;;5.53;;
81950;SDS011;71452;52.562;5.642;2024-01-06T11:00:34;7.63;;;4.68;;
81950;SDS011;71452;52.562;5.642;2024-01-06T11:03:04;11.85;;;5.63;;
81950;SDS011;71452;52.562;5.642;2024-01-06T11:05:34;7.50;;;3.95;;
81950;SDS011;71452;52.562;5.642;2024-01-06T11:08:05;8.90;;;5.45;;
81950;SDS011;71452;52.562;5.642;2024-01-06T11:10:37;8.45;;;3.85;;
81950;SDS011;71452;52.562;5.642;2024-01-06T11:13:11;7.95;;;5.45;;
81950;SDS011;71452;52.562;5.642;2024-01-06T11:15:46;8.23;;;4.68;;
81950;SDS011;71452;52.562;5.642;2024-01-06T11:18:33;10.25;;;5.07;;
81950;SDS011;71452;52.562;5.642;2024-01-06T11:21:19;8.15;;;4.47;;
81950;SDS011;71452;52.562;5.642;2024-01-06T11:26:57;7.35;;;3.30;;
81950;SDS011;71452;52.562;5.642;2024-01-06T11:29:28;5.20;;;3.53;;
81950;SDS011;71452;52.562;5.642;2024-01-06T11:34:48;7.47;;;3.97;;
81950;SDS011;71452;52.562;5.642;2024-01-06T11:37:19;8.77;;;4.20;;
81950;SDS011;71452;52.562;5.642;2024-01-06T11:39:52;6.90;;;3.75;;
81950;SDS011;71452;52.562;5.642;2024-01-06T11:42:24;9.48;;;4.60;;
81950;SDS011;71452;52.562;5.642;2024-01-06T11:45:01;9.02;;;5.70;;
81950;SDS011;71452;52.562;5.642;2024-01-06T11:47:31;9.68;;;4.03;;
81950;SDS011;71452;52.562;5.642;2024-01-06T11:50:02;8.45;;;5.28;;
81950;SDS011;71452;52.562;5.642;2024-01-06T11:52:32;7.88;;;4.32;;
81950;SDS011;71452;52.562;5.642;2024-01-06T11:55:02;12.50;;;6.45;;
81950;SDS011;71452;52.562;5.642;2024-01-06T11:57:36;10.82;;;6.10;;
81950;SDS011;71452;52.562;5.642;2024-01-06T12:00:06;9.23;;;6.13;;
81950;SDS011;71452;52.562;5.642;2024-01-06T12:02:37;7.38;;;4.03;;
81950;SDS011;71452;52.562;5.642;2024-01-06T12:05:11;9.48;;;5.65;;
81950;SDS011;71452;52.562;5.642;2024-01-06T12:07:43;6.47;;;3.85;;
81950;SDS011;71452;52.562;5.642;2024-01-06T12:10:22;6.30;;;3.58;;
81950;SDS011;71452;52.562;5.642;2024-01-06T12:12:59;5.93;;;3.13;;
81950;SDS011;71452;52.562;5.642;2024-01-06T12:15:29;6.88;;;3.50;;
81950;SDS011;71452;52.562;5.642;2024-01-06T12:18:02;8.18;;;4.07;;
81950;SDS011;71452;52.562;5.642;2024-01-06T12:20:31;9.00;;;3.38;;
81950;SDS011;71452;52.562;5.642;2024-01-06T12:23:01;7.00;;;3.58;;
81950;SDS011;71452;52.562;5.642;2024-01-06T12:25:31;8.02;;;4.38;;
81950;SDS011;71452;52.562;5.642;2024-01-06T12:28:05;7.63;;;3.80;;
81950;SDS011;71452;52.562;5.642;2024-01-06T12:30:34;5.07;;;3.47;;
81950;SDS011;71452;52.562;5.642;2024-01-06T12:33:03;7.50;;;3.30;;
81950;SDS011;71452;52.562;5.642;2024-01-06T12:35:34;4.70;;;2.92;;
81950;SDS011;71452;52.562;5.642;2024-01-06T12:38:03;5.55;;;2.83;;
81950;SDS011;71452;52.562;5.642;2024-01-06T12:40:34;6.53;;;4.22;;
81950;SDS011;71452;52.562;5.642;2024-01-06T12:43:06;8.90;;;3.92;;
81950;SDS011;71452;52.562;5.642;2024-01-06T12:45:36;5.13;;;3.05;;
81950;SDS011;71452;52.562;5.642;2024-01-06T12:48:05;7.05;;;2.83;;
81950;SDS011;71452;52.562;5.642;2024-01-06T12:50:35;5.35;;;3.58;;
81950;SDS011;71452;52.562;5.642;2024-01-06T12:53:04;6.13;;;2.90;;
81950;SDS011;71452;52.562;5.642;2024-01-06T12:55:37;8.07;;;4.10;;
81950;SDS011;71452;52.562;5.642;2024-01-06T12:58:09;6.10;;;3.10;;
81950;SDS011;71452;52.562;5.642;2024-01-06T13:00:38;2.97;;;1.85;;
81950;SDS011;71452;52.562;5.642;2024-01-06T13:03:08;4.35;;;2.33;;
81950;SDS011;71452;52.562;5.642;2024-01-06T13:05:37;6.55;;;3.63;;
81950;SDS011;71452;52.562;5.642;2024-01-06T13:08:06;6.60;;;3.40;;
81950;SDS011;71452;52.562;5.642;2024-01-06T13:10:35;4.95;;;3.00;;
81950;SDS011;71452;52.562;5.642;2024-01-06T13:13:04;5.10;;;2.85;;
81950;SDS011;71452;52.562;5.642;2024-01-06T13:15:36;5.07;;;2.75;;
81950;SDS011;71452;52.562;5.642;2024-01-06T13:18:05;4.95;;;2.30;;
81950;SDS011;71452;52.562;5.642;2024-01-06T13:20:37;4.35;;;2.05;;
81950;SDS011;71452;52.562;5.642;2024-01-06T13:23:07;6.90;;;2.92;;
81950;SDS011;71452;52.562;5.642;2024-01-06T13:25:37;11.85;;;5.40;;
81950;SDS011;71452;52.562;5.642;2024-01-06T13:28:07;6.07;;;4.03;;
81950;SDS011;71452;52.562;5.642;2024-01-06T13:30:38;5.38;;;2.67;;
81950;SDS011;71452;52.562;5.642;2024-01-06T13:33:08;5.72;;;3.33;;
81950;SDS011;71452;52.562;5.642;2024-01-06T13:35:37;6.43;;;3.88;;
81950;SDS011;71452;52.562;5.642;2024-01-06T13:38:06;7.03;;;4.55;;
81950;SDS011;71452;52.562;5.642;2024-01-06T13:40:35;6.85;;;4.50;;
81950;SDS011;71452;52.562;5.642;2024-01-06T13:43:05;4.35;;;2.65;;
81950;SDS011;71452;52.562;5.642;2024-01-06T13:45:44;4.60;;;2.75;;
81950;SDS011;71452;52.562;5.642;2024-01-06T13:48:13;2.17;;;1.85;;
81950;SDS011;71452;52.562;5.642;2024-01-06T13:50:44;3.92;;;1.98;;
81950;SDS011;71452;52.562;5.642;2024-01-06T13:53:13;4.35;;;2.70;;
81950;SDS011;71452;52.562;5.642;2024-01-06T13:55:43;5.88;;;2.55;;
81950;SDS011;71452;52.562;5.642;2024-01-06T13:58:12;4.60;;;3.08;;
81950;SDS011;71452;52.562;5.642;2024-01-06T14:00:44;5.60;;;3.28;;
81950;SDS011;71452;52.562;5.642;2024-01-06T14:03:14;4.38;;;2.88;;
81950;SDS011;71452;52.562;5.642;2024-01-06T14:05:43;6.78;;;3.67;;
81950;SDS011;71452;52.562;5.642;2024-01-06T14:08:12;6.18;;;3.45;;
81950;SDS011;71452;52.562;5.642;2024-01-06T14:10:42;3.60;;;2.10;;
81950;SDS011;71452;52.562;5.642;2024-01-06T14:13:11;5.88;;;3.20;;
81950;SDS011;71452;52.562;5.642;2024-01-06T14:15:40;8.85;;;2.75;;
81950;SDS011;71452;52.562;5.642;2024-01-06T14:18:12;5.22;;;2.78;;
81950;SDS011;71452;52.562;5.642;2024-01-06T14:20:42;4.30;;;2.58;;
81950;SDS011;71452;52.562;5.642;2024-01-06T14:23:11;5.93;;;3.35;;
81950;SDS011;71452;52.562;5.642;2024-01-06T14:25:41;6.45;;;2.65;;
81950;SDS011;71452;52.562;5.642;2024-01-06T14:28:10;6.15;;;3.60;;
81950;SDS011;71452;52.562;5.642;2024-01-06T14:30:41;6.05;;;3.15;;
81950;SDS011;71452;52.562;5.642;2024-01-06T14:33:13;6.18;;;3.35;;
81950;SDS011;71452;52.562;5.642;2024-01-06T14:35:44;5.75;;;2.78;;
81950;SDS011;71452;52.562;5.642;2024-01-06T14:38:14;6.38;;;3.25;;
81950;SDS011;71452;52.562;5.642;2024-01-06T14:40:43;8.10;;;3.65;;
81950;SDS011;71452;52.562;5.642;2024-01-06T14:43:12;6.13;;;3.15;;
81950;SDS011;71452;52.562;5.642;2024-01-06T14:45:41;6.13;;;2.90;;
81950;SDS011;71452;52.562;5.642;2024-01-06T14:48:13;7.03;;;2.92;;
81950;SDS011;71452;52.562;5.642;2024-01-06T14:50:42;7.57;;;4.32;;
81950;SDS011;71452;52.562;5.642;2024-01-06T14:53:11;7.60;;;4.05;;
81950;SDS011;71452;52.562;5.642;2024-01-06T14:55:40;8.82;;;4.68;;
81950;SDS011;71452;52.562;5.642;2024-01-06T14:58:10;4.15;;;3.05;;
81950;SDS011;71452;52.562;5.642;2024-01-06T15:00:39;7.93;;;4.30;;
81950;SDS011;71452;52.562;5.642;2024-01-06T15:03:08;4.90;;;3.63;;
81950;SDS011;71452;52.562;5.642;2024-01-06T15:05:40;6.60;;;4.30;;
81950;SDS011;71452;52.562;5.642;2024-01-06T15:08:09;8.90;;;4.93;;
81950;SDS011;71452;52.562;5.642;2024-01-06T15:10:38;6.05;;;3.90;;